Decoded Metar for KEEO (MEEKER in CO, USA) (IATA:EEO) | Meteo·Mobile Aviation Weather
aviador You're here:

KEEO Decoded Metar

MEEKER in CO, USA
Report Time2019-03-21 14:53:00
UTC Time2019-03-21 15:59:36
Flight Rules vfr VFR
WindCalm
Visibility9999 m
Phenomena:N/A
Clouds:N/A
Expected CloudBase > 1,600 ft AGL from Temp-Dew spread
CeilingNone
Temp-4°C (ISA -6)
Dew Point-8°C (74% RH)
AAT-6.9°C
QNH1019 hPa
Density Alt5,410 ft
Elevation6,332 ft
Report Wrong Elevation
Raw Report
KEEO 211453Z AUTO 00000KT 10SM CLR M04/M08 A3010 RMK AO2 SLP212
T10441078 58012=

Extra information for KEEO:More info

Metar Taf Metar & Taf Last 4 Metars F.Rules Stats Wind Profile Meteogram Temp Stats Airport Information Weather charts Add Link Nearby VenuesMetar ALERT Operation Metar Decoded Social comments

AIRNAV info for KEEO